Time;durP1;ratioP1;P1;durP2;ratioP2;P2;SDS_P1;SDS_P2;PMS_P1;PMS_P2;Temp;Humidity;BMP_temperature;BMP_pressure;BME280_temperature;BME280_humidity;BME280_pressure;Samples;Min_cycle;Max_cycle;Signal;HPM_P1;HPM_P2
2022/04/14 00:01:11;;;;;;;30.48;26.33;;;;;;;11.82;95.94;101827.56;5051380;28;20033;-71
2022/04/14 00:03:36;;;;;;;32.47;28.30;;;;;;;11.78;95.79;101821.75;5053951;28;20055;-73
2022/04/14 00:06:01;;;;;;;32.33;27.45;;;;;;;11.79;95.77;101823.44;5053829;28;20025;-72
2022/04/14 00:08:27;;;;;;;32.88;28.02;;;;;;;11.75;95.83;101818.63;5035823;28;20048;-72
2022/04/14 00:10:52;;;;;;;32.90;29.30;;;;;;;11.75;96.48;101811.31;5053891;28;20035;-73
2022/04/14 00:13:18;;;;;;;35.00;28.80;;;;;;;11.76;96.14;101810.28;5035321;28;20068;-72
2022/04/14 00:15:43;;;;;;;35.47;28.38;;;;;;;11.72;95.79;101809.03;5033906;28;20082;-71
2022/04/14 00:18:08;;;;;;;34.78;28.55;;;;;;;11.69;96.03;101812.97;5033591;28;20026;-71
2022/04/14 00:20:33;;;;;;;30.02;26.80;;;;;;;11.71;95.27;101812.78;5033496;28;20048;-71
2022/04/14 00:22:59;;;;;;;31.70;28.30;;;;;;;11.72;96.04;101809.03;5015947;28;20034;-72
2022/04/14 00:25:25;;;;;;;35.28;29.70;;;;;;;11.73;96.65;101809.84;5033740;28;20174;-73
2022/04/14 00:27:50;;;;;;;34.65;28.92;;;;;;;11.70;96.62;101808.41;5033700;28;20500;-72
2022/04/14 00:30:16;;;;;;;34.60;28.15;;;;;;;11.72;96.08;101806.31;5033380;28;20040;-71
2022/04/14 00:32:41;;;;;;;32.80;28.55;;;;;;;11.70;96.21;101811.13;5035614;28;20104;-72
2022/04/14 00:35:06;;;;;;;32.22;26.77;;;;;;;11.69;96.34;101804.84;5053227;28;20028;-73
2022/04/14 00:37:32;;;;;;;30.92;27.27;;;;;;;11.72;96.26;101809.03;5035510;28;20029;-71
2022/04/14 00:39:57;;;;;;;34.45;28.88;;;;;;;11.74;96.54;101803.41;5053348;28;20025;-73
2022/04/14 00:42:22;;;;;;;31.10;27.75;;;;;;;11.72;96.67;101800.06;5052776;28;20033;-71
2022/04/14 00:44:47;;;;;;;32.80;29.17;;;;;;;11.69;95.81;101795.91;5053272;28;20033;-72
2022/04/14 00:47:13;;;;;;;32.70;27.35;;;;;;;11.72;96.86;101809.03;5053039;28;20064;-72
2022/04/14 00:49:39;;;;;;;33.03;28.95;;;;;;;11.70;95.88;101808.41;5053379;28;20039;-71
2022/04/14 00:52:06;;;;;;;32.92;28.25;;;;;;;11.70;95.87;101805.72;5053137;28;20388;-73
2022/04/14 00:54:31;;;;;;;31.70;28.15;;;;;;;11.69;96.32;101806.75;5046592;28;20056;-72
2022/04/14 00:56:58;;;;;;;31.00;27.75;;;;;;;11.65;96.07;101802.78;5033059;28;20033;-72
2022/04/14 00:59:23;;;;;;;31.88;28.40;;;;;;;11.61;96.42;101801.50;5032812;28;20037;-73
2022/04/14 01:01:49;;;;;;;32.35;28.58;;;;;;;11.64;96.28;101807.38;5030515;28;20044;-70
2022/04/14 01:04:15;;;;;;;33.63;29.92;;;;;;;11.62;96.77;101811.31;5032893;28;20109;-71
2022/04/14 01:06:41;;;;;;;35.13;29.50;;;;;;;11.64;96.92;101798.38;5033055;28;20047;-70
2022/04/14 01:09:18;;;;;;;33.72;29.60;;;;;;;11.64;97.43;101803.81;5032769;28;20453;-70
2022/04/14 01:11:48;;;;;;;33.25;29.63;;;;;;;11.68;97.30;101805.06;5032807;28;20025;-72
2022/04/14 01:14:29;;;;;;;34.20;29.52;;;;;;;11.68;96.87;101807.78;5032508;28;20217;-73
2022/04/14 01:16:57;;;;;;;35.58;30.30;;;;;;;11.64;96.94;101801.09;5033860;28;20044;-71
2022/04/14 01:19:22;;;;;;;34.50;30.05;;;;;;;11.62;96.91;101803.19;5043681;28;20040;-71
2022/04/14 01:22:18;;;;;;;33.17;29.58;;;;;;;11.59;97.02;101801.72;5052609;28;20484;-71
2022/04/14 01:24:43;;;;;;;32.80;29.25;;;;;;;11.57;96.90;101803.00;5034788;28;20063;-71
2022/04/14 01:27:09;;;;;;;34.10;28.45;;;;;;;11.59;97.25;101800.91;5052273;28;20073;-70
2022/04/14 01:29:35;;;;;;;34.90;29.73;;;;;;;11.58;96.73;101804.63;5052390;28;20032;-73
2022/04/14 01:32:02;;;;;;;32.90;29.45;;;;;;;11.56;97.38;101798.59;5052432;28;20025;-73
2022/04/14 01:34:30;;;;;;;34.03;30.23;;;;;;;11.55;97.35;101797.78;5052249;28;20025;-70
2022/04/14 01:37:04;;;;;;;33.50;29.88;;;;;;;11.49;96.91;101802.16;5035629;28;20094;-72
2022/04/14 01:39:30;;;;;;;36.60;31.20;;;;;;;11.50;97.59;101798.41;5014735;28;20071;-72
2022/04/14 01:41:55;;;;;;;38.22;30.58;;;;;;;11.47;97.67;101803.38;5032433;28;20071;-71
2022/04/14 01:44:21;;;;;;;35.38;30.58;;;;;;;11.48;98.22;101797.75;5032307;28;20424;-73
2022/04/14 01:46:46;;;;;;;33.53;29.92;;;;;;;11.48;98.33;101796.94;5014746;28;20036;-72
2022/04/14 01:49:11;;;;;;;32.70;28.48;;;;;;;11.47;97.71;101798.81;5032321;28;20026;-71
2022/04/14 01:51:37;;;;;;;38.40;32.25;;;;;;;11.47;98.71;101798.81;5032030;28;20459;-72
2022/04/14 01:54:04;;;;;;;35.13;29.95;;;;;;;11.46;98.45;101801.75;5033681;28;20472;-70
2022/04/14 01:56:29;;;;;;;35.95;30.38;;;;;;;11.45;98.13;101794.63;5056367;28;20033;-71
2022/04/14 01:58:54;;;;;;;38.03;32.60;;;;;;;11.47;98.45;101801.53;5056376;28;20440;-73
2022/04/14 02:01:20;;;;;;;37.42;31.70;;;;;;;11.45;99.16;101797.34;5036063;28;20041;-73
2022/04/14 02:03:46;;;;;;;39.55;31.23;;;;;;;11.42;99.17;101806.72;5056310;28;20103;-71
2022/04/14 02:06:12;;;;;;;39.47;33.38;;;;;;;11.43;99.34;101807.53;5038203;28;20039;-73
2022/04/14 02:08:37;;;;;;;39.42;32.70;;;;;;;11.39;99.03;101807.13;5056172;28;20057;-73
2022/04/14 02:11:03;;;;;;;40.45;33.58;;;;;;;11.40;99.70;101802.53;5056408;28;20511;-73
2022/04/14 02:13:30;;;;;;;40.00;32.50;;;;;;;11.40;99.18;101813.38;5055949;28;20044;-72
2022/04/14 02:15:55;;;;;;;39.50;32.65;;;;;;;11.40;98.99;101814.22;5053539;28;20021;-71
2022/04/14 02:18:20;;;;;;;37.78;32.00;;;;;;;11.37;98.81;101809.22;5035796;28;20033;-73
2022/04/14 02:20:46;;;;;;;40.42;32.92;;;;;;;11.38;98.57;101813.59;5035782;28;20060;-72
2022/04/14 02:23:11;;;;;;;36.90;31.35;;;;;;;11.37;99.05;101809.22;5035596;28;20482;-78
2022/04/14 02:25:36;;;;;;;38.22;32.10;;;;;;;11.32;98.75;101809.00;5018084;28;20025;-79
2022/04/14 02:28:02;;;;;;;39.13;31.63;;;;;;;11.36;98.75;101812.97;5040978;28;20064;-73
2022/04/14 02:30:27;;;;;;;39.20;33.75;;;;;;;11.34;99.31;101812.34;5037626;28;20035;-73
2022/04/14 02:32:52;;;;;;;43.00;33.95;;;;;;;11.34;99.37;101818.59;5044192;28;20037;-73
2022/04/14 02:35:17;;;;;;;43.13;33.67;;;;;;;11.35;99.19;101816.72;5017875;28;20045;-73
2022/04/14 02:37:43;;;;;;;37.28;31.08;;;;;;;11.32;98.26;101817.97;5042308;28;20033;-70
2022/04/14 02:40:09;;;;;;;39.33;30.40;;;;;;;11.32;97.48;101822.53;5055333;28;20048;-71
2022/04/14 02:42:34;;;;;;;37.85;31.45;;;;;;;11.33;98.42;101826.94;5055583;28;20044;-71
2022/04/14 02:44:59;;;;;;;37.17;30.85;;;;;;;11.32;97.89;101830.69;5055253;28;20033;-71
2022/04/14 02:47:25;;;;;;;37.15;30.88;;;;;;;11.26;97.18;101823.38;5055004;28;20553;-71
2022/04/14 02:49:51;;;;;;;35.50;30.80;;;;;;;11.22;97.46;101824.81;5055148;28;20421;-71
2022/04/14 02:52:16;;;;;;;37.17;32.08;;;;;;;11.21;97.85;101826.69;5055111;28;20118;-71
2022/04/14 02:54:42;;;;;;;39.80;32.53;;;;;;;11.20;98.02;101825.03;5047285;28;20060;-71
2022/04/14 02:57:08;;;;;;;38.75;32.28;;;;;;;11.20;98.29;101824.19;5035070;28;20037;-70
2022/04/14 02:59:35;;;;;;;34.40;30.48;;;;;;;11.14;97.34;101821.28;5035465;28;20033;-71
2022/04/14 03:02:00;;;;;;;36.33;31.23;;;;;;;11.12;97.03;101811.69;5015214;28;20030;-71
2022/04/14 03:04:29;;;;;;;36.33;31.17;;;;;;;11.08;96.94;101816.69;5034751;28;20088;-71
2022/04/14 03:06:54;;;;;;;37.85;31.15;;;;;;;11.04;96.96;101820.84;5035028;28;20501;-71
2022/04/14 03:09:20;;;;;;;35.80;30.73;;;;;;;11.03;96.44;101815.63;5034643;28;20108;-71
2022/04/14 03:11:45;;;;;;;38.63;30.00;;;;;;;11.01;96.84;101810.41;5035005;28;20040;-71
2022/04/14 03:14:10;;;;;;;34.60;29.15;;;;;;;11.00;96.65;101811.44;5045273;28;20033;-71
2022/04/14 03:16:35;;;;;;;35.28;29.65;;;;;;;10.98;96.21;101808.09;5053977;28;20039;-70
2022/04/14 03:19:01;;;;;;;37.55;30.25;;;;;;;10.97;96.12;101819.97;5054566;28;20469;-70
2022/04/14 03:21:26;;;;;;;38.00;30.75;;;;;;;10.95;96.46;101819.34;5054404;28;20036;-71
2022/04/14 03:23:51;;;;;;;35.65;31.25;;;;;;;10.96;97.36;101818.28;5054762;28;20463;-71
2022/04/14 03:26:17;;;;;;;35.08;30.13;;;;;;;10.95;96.84;101816.63;5036701;28;20486;-71
2022/04/14 03:28:42;;;;;;;38.95;30.20;;;;;;;10.92;95.81;101823.28;5036371;28;20083;-71
2022/04/14 03:31:07;;;;;;;36.83;30.83;;;;;;;10.91;96.37;101813.50;5034722;28;20056;-71
2022/04/14 03:33:33;;;;;;;38.08;31.27;;;;;;;10.90;96.71;101821.81;5034462;28;20100;-71
2022/04/14 03:35:58;;;;;;;39.97;32.50;;;;;;;10.88;96.33;101829.31;5034416;28;20028;-71
2022/04/14 03:38:24;;;;;;;36.88;31.30;;;;;;;10.86;96.32;101826.81;5034400;28;20095;-71
2022/04/14 03:40:50;;;;;;;35.70;30.88;;;;;;;10.82;96.67;101826.41;5034625;28;20412;-71
2022/04/14 03:43:16;;;;;;;41.08;31.88;;;;;;;10.80;96.62;101823.03;5034618;28;20029;-71
2022/04/14 03:45:42;;;;;;;35.67;29.70;;;;;;;10.78;96.41;101832.41;5035253;28;20032;-71
2022/04/14 03:48:07;;;;;;;40.17;32.08;;;;;;;10.79;96.60;101828.66;5054059;28;20029;-71
2022/04/14 03:50:32;;;;;;;42.42;33.45;;;;;;;10.74;96.92;101823.84;5053876;28;20071;-71
2022/04/14 03:52:58;;;;;;;44.58;33.95;;;;;;;10.78;97.17;101822.41;5054078;28;20431;-71
2022/04/14 03:55:23;;;;;;;58.38;35.42;;;;;;;10.74;97.65;101814.91;5054047;28;20025;-71
2022/04/14 03:57:48;;;;;;;52.53;36.50;;;;;;;10.70;98.01;101817.16;5054494;28;20025;-71
2022/04/14 04:00:14;;;;;;;50.88;35.78;;;;;;;10.74;98.27;101814.91;5053995;28;20029;-71
2022/04/14 04:02:39;;;;;;;51.38;37.35;;;;;;;10.74;98.01;101815.72;5034170;28;20040;-71
2022/04/14 04:05:05;;;;;;;73.55;36.80;;;;;;;10.74;98.80;101814.91;5054257;28;20024;-71
2022/04/14 04:07:30;;;;;;;76.25;37.03;;;;;;;10.71;99.25;101821.53;5051663;28;20066;-71
2022/04/14 04:09:56;;;;;;;52.40;36.42;;;;;;;10.76;98.86;101823.66;5053808;28;20104;-71
2022/04/14 04:12:21;;;;;;;72.97;35.08;;;;;;;10.73;99.19;101830.28;5035819;28;20448;-71
2022/04/14 04:14:48;;;;;;;62.25;34.63;;;;;;;10.68;99.04;101830.06;5036015;28;20033;-71
2022/04/14 04:17:14;;;;;;;87.00;35.47;;;;;;;10.67;99.63;101830.28;5035223;28;20029;-71
2022/04/14 04:19:39;;;;;;;90.70;32.15;;;;;;;10.60;99.96;101830.25;5053800;28;20061;-71
2022/04/14 04:22:06;;;;;;;81.97;33.17;;;;;;;10.57;100.00;101838.78;5053758;28;20029;-71
2022/04/14 04:24:31;;;;;;;105.90;32.20;;;;;;;10.49;100.00;101838.94;5053495;28;20108;-71
2022/04/14 04:26:56;;;;;;;91.10;29.35;;;;;;;10.43;100.00;101843.25;5053585;28;20445;-71
2022/04/14 04:29:21;;;;;;;80.70;31.42;;;;;;;10.35;100.00;101844.25;5043776;28;20033;-71
2022/04/14 04:31:47;;;;;;;85.30;30.40;;;;;;;10.35;100.00;101838.03;5033483;28;20029;-71
2022/04/14 04:34:12;;;;;;;75.35;29.27;;;;;;;10.30;100.00;101844.00;5033599;28;20034;-71
2022/04/14 04:36:37;;;;;;;70.15;28.48;;;;;;;10.23;100.00;101852.06;5033287;28;20483;-71
2022/04/14 04:39:04;;;;;;;59.95;27.85;;;;;;;10.21;100.00;101853.31;5033568;28;20036;-71
2022/04/14 04:41:30;;;;;;;61.25;29.23;;;;;;;10.16;100.00;101855.75;5033279;28;20112;-71
2022/04/14 04:43:55;;;;;;;48.85;27.65;;;;;;;10.16;100.00;101855.75;5033110;28;20108;-71
2022/04/14 04:46:20;;;;;;;54.83;28.85;;;;;;;10.15;100.00;101854.09;5032882;28;20492;-71
2022/04/14 04:48:46;;;;;;;43.33;29.20;;;;;;;10.18;100.00;101853.72;5039210;28;20040;-71
2022/04/14 04:51:11;;;;;;;47.63;28.63;;;;;;;10.16;100.00;101850.34;5035147;28;20029;-71
2022/04/14 04:53:36;;;;;;;55.75;29.67;;;;;;;10.18;100.00;101857.25;5052891;28;20036;-71
2022/04/14 04:56:01;;;;;;;48.22;28.02;;;;;;;10.20;100.00;101859.75;5052972;28;20021;-71
2022/04/14 04:58:27;;;;;;;52.75;29.63;;;;;;;10.18;100.00;101865.34;5052838;28;20041;-71
2022/04/14 05:00:53;;;;;;;46.38;29.38;;;;;;;10.18;100.00;101865.34;5032513;28;20429;-71
2022/04/14 05:03:18;;;;;;;51.38;28.58;;;;;;;10.16;100.00;101859.31;5052738;28;20503;-71
2022/04/14 05:05:44;;;;;;;49.20;28.92;;;;;;;10.18;100.00;101864.53;5052627;28;20062;-71
2022/04/14 05:08:09;;;;;;;53.30;28.95;;;;;;;10.18;100.00;101867.22;5043830;28;20054;-71
2022/04/14 05:10:35;;;;;;;57.55;28.95;;;;;;;10.16;100.00;101862.03;5015240;28;20096;-70
2022/04/14 05:13:01;;;;;;;71.57;28.02;;;;;;;10.16;100.00;101872.00;5032686;28;20377;-71
2022/04/14 05:15:27;;;;;;;61.20;28.60;;;;;;;10.11;100.00;101870.72;5032607;28;20029;-71
2022/04/14 05:17:52;;;;;;;86.18;29.25;;;;;;;10.05;100.00;101870.66;5032828;28;20511;-71
2022/04/14 05:20:17;;;;;;;44.28;27.45;;;;;;;10.07;100.00;101868.59;5032635;28;20484;-71
2022/04/14 05:22:43;;;;;;;49.30;27.23;;;;;;;10.00;100.00;101873.97;5032716;28;20045;-71
2022/04/14 05:25:09;;;;;;;50.83;26.83;;;;;;;10.00;100.00;101873.13;5033020;28;20119;-71
2022/04/14 05:27:34;;;;;;;34.85;27.83;;;;;;;9.99;100.00;101880.38;5038105;28;20361;-71
2022/04/14 05:29:59;;;;;;;41.53;27.73;;;;;;;10.00;100.00;101882.06;5034595;28;20115;-71
2022/04/14 05:32:24;;;;;;;37.28;28.60;;;;;;;9.98;100.00;101884.16;5051994;28;20488;-71
2022/04/14 05:34:50;;;;;;;43.00;26.88;;;;;;;9.97;100.00;101887.03;5034709;28;20041;-71
2022/04/14 05:37:15;;;;;;;36.80;26.92;;;;;;;9.98;99.93;101889.56;5042424;28;20043;-71
2022/04/14 05:39:40;;;;;;;42.75;27.77;;;;;;;9.94;100.00;101891.78;5051656;28;20388;-71
2022/04/14 05:42:06;;;;;;;31.90;26.27;;;;;;;9.97;99.70;101901.38;5052420;28;20079;-71
2022/04/14 05:44:31;;;;;;;34.17;27.25;;;;;;;9.96;99.98;101899.72;5052446;28;20021;-71
2022/04/14 05:46:56;;;;;;;33.70;28.13;;;;;;;9.99;99.61;101903.91;5051809;28;20043;-73
2022/04/14 05:49:21;;;;;;;38.53;26.77;;;;;;;10.03;99.67;101910.59;5033837;28;20040;-73
2022/04/14 05:51:47;;;;;;;31.00;26.13;;;;;;;9.98;99.13;101902.22;5052276;28;20032;-74
2022/04/14 05:54:12;;;;;;;31.23;26.73;;;;;;;10.01;99.56;101905.38;5051816;28;20025;-73
2022/04/14 05:56:37;;;;;;;31.85;27.23;;;;;;;10.04;99.29;101906.84;5052389;28;20032;-74
2022/04/14 05:59:03;;;;;;;32.10;27.23;;;;;;;10.07;99.86;101906.44;5052235;28;20029;-75
2022/04/14 06:01:28;;;;;;;29.88;25.73;;;;;;;10.13;99.84;101904.84;5049815;28;20036;-77
2022/04/14 06:03:53;;;;;;;31.08;26.00;;;;;;;10.14;99.22;101911.94;5034388;28;20033;-79
2022/04/14 06:06:18;;;;;;;32.22;26.70;;;;;;;10.15;99.74;101908.19;5034289;28;20688;-74
2022/04/14 06:08:44;;;;;;;31.35;28.05;;;;;;;10.15;99.05;101906.31;5024548;28;20056;-73
2022/04/14 06:11:10;;;;;;;30.60;26.88;;;;;;;10.20;99.33;101911.97;5032262;28;20064;-74
2022/04/14 06:13:36;;;;;;;33.97;28.30;;;;;;;10.20;99.76;101908.44;5032301;28;20052;-75
2022/04/14 06:16:02;;;;;;;30.60;26.30;;;;;;;10.20;99.43;101911.97;5033077;28;20022;-73
2022/04/14 06:18:27;;;;;;;30.33;27.02;;;;;;;10.33;99.65;101905.00;5031979;28;20022;-72
2022/04/14 06:20:54;;;;;;;31.42;26.88;;;;;;;10.36;100.00;101910.06;5014364;28;20022;-74
2022/04/14 06:23:19;;;;;;;30.55;26.58;;;;;;;10.40;99.98;101912.16;5032290;28;20030;-72
2022/04/14 06:25:49;;;;;;;32.63;26.58;;;;;;;10.46;99.65;101905.97;5036666;28;20036;-71
2022/04/14 06:28:17;;;;;;;30.48;26.13;;;;;;;10.51;99.49;101913.47;5031872;28;20033;-75
2022/04/14 06:30:42;;;;;;;31.95;26.17;;;;;;;10.54;99.60;101907.66;5032124;28;20029;-73
2022/04/14 06:33:07;;;;;;;32.67;26.75;;;;;;;10.64;99.97;101918.13;5032414;28;20104;-77
2022/04/14 06:35:33;;;;;;;29.13;25.58;;;;;;;10.70;99.71;101911.09;5031528;28;20088;-78
2022/04/14 06:37:58;;;;;;;31.17;26.58;;;;;;;10.75;99.61;101923.00;5014300;28;20033;-71
2022/04/14 06:40:24;;;;;;;30.40;25.98;;;;;;;10.82;100.00;101920.31;5033439;28;20029;-71
2022/04/14 06:42:49;;;;;;;30.02;25.85;;;;;;;10.85;99.29;101929.91;5035716;28;20033;-71
2022/04/14 06:45:16;;;;;;;36.47;26.90;;;;;;;10.85;99.69;101919.91;5035661;28;20037;-71
2022/04/14 06:47:41;;;;;;;30.23;26.58;;;;;;;10.89;99.96;101915.78;5035212;28;20037;-71
2022/04/14 06:50:06;;;;;;;33.60;26.55;;;;;;;10.93;99.39;101918.91;5035160;28;20029;-71
2022/04/14 06:52:32;;;;;;;32.15;26.40;;;;;;;10.96;100.00;101915.78;5017414;28;20101;-72
2022/04/14 06:54:58;;;;;;;32.03;26.45;;;;;;;11.04;100.00;101915.63;5035522;28;20033;-71
2022/04/14 06:57:23;;;;;;;31.58;25.77;;;;;;;11.09;99.94;101918.56;5035164;28;20393;-71
2022/04/14 06:59:49;;;;;;;31.27;25.75;;;;;;;11.16;99.95;101916.72;5035061;28;20132;-71
2022/04/14 07:02:14;;;;;;;31.95;24.58;;;;;;;11.25;99.76;101913.84;5015296;28;20045;-71
2022/04/14 07:04:39;;;;;;;34.08;25.13;;;;;;;11.30;99.02;101908.63;5035393;28;20036;-71
2022/04/14 07:07:05;;;;;;;29.88;23.92;;;;;;;11.38;98.99;101919.28;5035070;28;20381;-71
2022/04/14 07:09:32;;;;;;;33.33;24.40;;;;;;;11.43;98.36;101916.81;5035112;28;20065;-71
2022/04/14 07:12:01;;;;;;;30.20;23.95;;;;;;;11.56;98.69;101926.00;5035054;28;20045;-71
2022/04/14 07:14:28;;;;;;;29.35;22.70;;;;;;;11.61;97.83;101921.66;5034885;28;20468;-71
2022/04/14 07:16:54;;;;;;;29.63;22.58;;;;;;;11.68;97.25;101918.94;5034793;28;20458;-71
2022/04/14 07:19:19;;;;;;;30.35;22.15;;;;;;;11.71;96.28;101932.06;5035027;28;20112;-71
2022/04/14 07:21:44;;;;;;;30.27;23.50;;;;;;;11.78;97.37;101932.09;5034865;28;20071;-71
2022/04/14 07:24:10;;;;;;;25.90;21.70;;;;;;;11.77;96.82;101923.13;5034922;28;20034;-71
2022/04/14 07:26:36;;;;;;;30.10;22.80;;;;;;;11.86;97.25;101921.03;5034465;28;20064;-71
2022/04/14 07:29:02;;;;;;;33.55;21.95;;;;;;;11.94;96.34;101929.03;5034879;28;20032;-71
2022/04/14 07:31:27;;;;;;;27.30;20.52;;;;;;;12.01;95.80;101935.28;5034788;28;20128;-71
2022/04/14 07:33:53;;;;;;;27.42;21.45;;;;;;;12.07;95.32;101941.75;5034625;28;20528;-71
2022/04/14 07:36:21;;;;;;;25.30;19.88;;;;;;;12.08;94.35;101934.44;5034762;28;20496;-71
2022/04/14 07:38:46;;;;;;;26.10;19.88;;;;;;;12.13;94.09;101937.38;5016686;28;20065;-71
2022/04/14 07:41:11;;;;;;;23.92;19.25;;;;;;;12.18;93.80;101935.72;5034694;28;20160;-71
2022/04/14 07:43:37;;;;;;;28.63;19.85;;;;;;;12.23;93.78;101941.34;5034378;28;20037;-71
2022/04/14 07:46:03;;;;;;;23.02;18.48;;;;;;;12.32;94.69;101941.09;5034611;28;20033;-71
2022/04/14 07:48:29;;;;;;;24.15;18.05;;;;;;;12.36;92.80;101936.94;5034289;28;20044;-71
2022/04/14 07:50:54;;;;;;;23.50;17.23;;;;;;;12.37;91.52;101944.03;5034006;28;20025;-71
2022/04/14 07:53:19;;;;;;;23.15;17.42;;;;;;;12.41;92.20;101948.84;5034106;28;20032;-71
2022/04/14 07:55:45;;;;;;;23.02;16.98;;;;;;;12.49;92.65;101942.34;5034103;28;20037;-71
2022/04/14 07:58:10;;;;;;;23.02;16.60;;;;;;;12.56;91.28;101948.63;5034376;28;20073;-71
2022/04/14 08:00:37;;;;;;;21.83;16.23;;;;;;;12.66;91.20;101950.88;5031719;28;20133;-71
2022/04/14 08:03:04;;;;;;;19.98;14.15;;;;;;;12.74;90.98;101958.81;5034204;28;20030;-71
2022/04/14 08:05:35;;;;;;;18.70;13.98;;;;;;;12.79;88.52;101946.47;5033953;28;20041;-71
2022/04/14 08:08:05;;;;;;;18.30;14.50;;;;;;;12.85;88.42;101951.91;5016539;28;20058;-71
2022/04/14 08:10:31;;;;;;;20.33;14.68;;;;;;;12.88;87.64;101948.75;5033982;28;20108;-71
2022/04/14 08:12:57;;;;;;;19.27;14.50;;;;;;;12.98;87.82;101955.63;5033921;28;20116;-71
2022/04/14 08:15:24;;;;;;;19.80;14.60;;;;;;;13.01;87.76;101956.00;5033780;28;20056;-71
2022/04/14 08:17:49;;;;;;;19.98;15.73;;;;;;;13.05;88.59;101951.00;5033660;28;20025;-71
2022/04/14 08:20:16;;;;;;;20.10;15.30;;;;;;;13.08;88.77;101945.97;5033639;28;20112;-71
2022/04/14 08:23:00;;;;;;;19.80;16.52;;;;;;;13.17;88.35;101954.72;5033680;28;20026;-71
2022/04/14 08:25:44;;;;;;;18.95;15.05;;;;;;;13.19;87.70;101954.50;5016186;28;20032;-71
2022/04/14 08:28:09;;;;;;;16.17;12.80;;;;;;;13.29;85.24;101950.25;5016114;28;20061;-71
2022/04/14 08:30:36;;;;;;;18.27;13.68;;;;;;;13.39;84.63;101952.56;5033794;28;20436;-71
2022/04/14 08:33:05;;;;;;;18.10;13.50;;;;;;;13.46;84.38;101963.41;5033491;28;20120;-71
2022/04/14 08:35:32;;;;;;;17.27;13.25;;;;;;;13.52;83.56;101958.97;5033410;28;20036;-71
2022/04/14 08:37:58;;;;;;;22.02;14.90;;;;;;;13.55;85.17;101962.09;5033412;28;20029;-71
2022/04/14 08:40:28;;;;;;;20.67;15.18;;;;;;;13.65;85.74;101957.00;5033602;28;20435;-71
2022/04/14 08:43:00;;;;;;;20.60;15.10;;;;;;;13.64;84.40;101954.50;5033243;28;20035;-71
2022/04/14 08:45:29;;;;;;;20.50;15.60;;;;;;;13.69;84.67;101956.56;5032996;28;20065;-71
2022/04/14 08:47:57;;;;;;;19.38;15.20;;;;;;;13.72;84.83;101950.69;5033133;28;20033;-71
2022/04/14 08:50:24;;;;;;;16.77;14.05;;;;;;;13.74;84.15;101951.31;5033367;28;20079;-71
2022/04/14 08:52:51;;;;;;;20.10;15.45;;;;;;;13.79;84.74;101956.94;5033184;28;20079;-71
2022/04/14 08:55:17;;;;;;;21.10;14.80;;;;;;;13.83;83.91;101953.56;5015511;28;20033;-71
2022/04/14 08:57:42;;;;;;;19.02;13.25;;;;;;;13.85;82.33;101956.06;5032983;28;20032;-71
2022/04/14 09:00:10;;;;;;;18.75;13.43;;;;;;;13.90;82.94;101948.06;5033023;28;20030;-71
2022/04/14 09:02:36;;;;;;;18.05;10.90;;;;;;;13.95;81.56;101950.97;5012612;28;20041;-71
2022/04/14 09:05:03;;;;;;;16.92;10.63;;;;;;;14.04;80.20;101953.41;5032757;28;20366;-71
2022/04/14 09:07:28;;;;;;;14.48;9.23;;;;;;;14.12;78.82;101950.41;5015089;28;20049;-71
2022/04/14 09:09:54;;;;;;;15.43;9.48;;;;;;;14.21;79.57;101957.25;5032872;28;20494;-71
2022/04/14 09:12:19;;;;;;;12.48;9.00;;;;;;;14.29;76.38;101959.69;5015136;28;20083;-71
2022/04/14 09:14:46;;;;;;;14.50;9.02;;;;;;;14.30;78.41;101964.09;5032630;28;20108;-71
2022/04/14 09:17:11;;;;;;;14.77;8.63;;;;;;;14.35;77.79;101964.22;5032886;28;20025;-71
2022/04/14 09:19:38;;;;;;;12.73;8.82;;;;;;;14.47;77.09;101958.06;5032411;28;20105;-71
2022/04/14 09:22:12;;;;;;;11.60;8.68;;;;;;;14.56;76.21;101951.28;5015139;28;20421;-71
2022/04/14 09:24:40;;;;;;;15.25;10.02;;;;;;;14.60;77.74;101940.75;5032282;28;20033;-71
2022/04/14 09:27:07;;;;;;;15.63;9.35;;;;;;;14.66;76.85;101940.72;5032328;28;20552;-71
2022/04/14 09:29:32;;;;;;;12.07;9.00;;;;;;;14.74;75.88;101936.88;5032661;28;20025;-70
2022/04/14 09:31:58;;;;;;;12.73;8.20;;;;;;;14.84;74.29;101939.06;5032644;28;20539;-71
2022/04/14 09:34:51;;;;;;;10.63;7.28;;;;;;;14.93;74.21;101935.00;5032604;28;20033;-71
2022/04/14 09:37:17;;;;;;;12.10;7.57;;;;;;;15.02;72.35;101944.53;5032607;28;20021;-71
2022/04/14 09:40:05;;;;;;;10.82;7.68;;;;;;;14.97;73.13;101930.72;5032337;28;20116;-71
2022/04/14 09:42:32;;;;;;;9.82;6.95;;;;;;;14.98;72.36;101929.69;5032611;28;20044;-71
2022/04/14 09:45:17;;;;;;;9.20;7.13;;;;;;;15.09;73.67;101924.53;5014610;28;20042;-70
2022/04/14 09:47:43;;;;;;;12.18;7.30;;;;;;;15.15;72.41;101912.69;5014511;28;20373;-71
2022/04/14 09:50:27;;;;;;;12.27;6.82;;;;;;;15.23;71.21;101929.59;5014634;28;20033;-71
2022/04/14 09:53:01;;;;;;;12.07;7.10;;;;;;;15.26;71.93;101922.81;5014423;28;20056;-71
2022/04/14 09:55:27;;;;;;;12.23;7.38;;;;;;;15.18;70.39;101917.69;5032438;28;20031;-71
2022/04/14 09:58:17;;;;;;;13.18;7.65;;;;;;;15.23;70.93;101915.94;5031903;28;20080;-71
2022/04/14 10:00:54;;;;;;;14.68;7.25;;;;;;;15.28;69.02;101915.25;5029695;28;20022;-71
2022/04/14 10:03:24;;;;;;;11.57;7.93;;;;;;;15.32;69.73;101916.44;5032163;28;20030;-71
2022/04/14 10:05:55;;;;;;;12.45;7.65;;;;;;;15.39;69.56;101911.72;5032046;28;20021;-71
2022/04/14 10:08:22;;;;;;;13.05;7.55;;;;;;;15.39;68.87;101908.19;5032227;28;20076;-71
2022/04/14 10:10:49;;;;;;;10.90;7.00;;;;;;;15.49;68.25;101905.75;5032143;28;20029;-71
2022/04/14 10:13:16;;;;;;;11.13;6.90;;;;;;;15.49;68.20;101913.06;5014588;28;20025;-71
2022/04/14 10:15:44;;;;;;;9.73;6.72;;;;;;;15.54;67.22;101918.69;5034702;28;20040;-71
2022/04/14 10:18:12;;;;;;;11.32;6.53;;;;;;;15.78;66.28;101925.06;5036152;28;20029;-71
2022/04/14 10:20:38;;;;;;;8.70;5.93;;;;;;;15.87;65.26;101941.94;5035849;28;20036;-72
2022/04/14 10:23:05;;;;;;;7.95;5.80;;;;;;;15.94;64.29;101945.38;5018504;28;20041;-71
2022/04/14 10:25:32;;;;;;;11.60;5.75;;;;;;;16.07;64.56;101942.44;5036024;28;20034;-71
2022/04/14 10:27:59;;;;;;;8.30;5.13;;;;;;;16.16;63.00;101944.84;5035733;28;20037;-71
2022/04/14 10:30:25;;;;;;;7.88;4.45;;;;;;;16.18;61.46;101945.41;5035903;28;20052;-71
2022/04/14 10:32:53;;;;;;;10.13;5.70;;;;;;;16.20;61.54;101951.47;5017842;28;20052;-70
2022/04/14 10:35:18;;;;;;;8.35;5.05;;;;;;;16.30;61.16;101959.91;5035822;28;20040;-71
2022/04/14 10:37:47;;;;;;;9.70;5.60;;;;;;;16.41;60.27;101950.06;5035654;28;20034;-71
2022/04/14 10:40:14;;;;;;;14.05;4.70;;;;;;;16.43;60.99;101953.41;5035470;28;20025;-71
2022/04/14 10:42:48;;;;;;;10.90;4.95;;;;;;;16.34;60.44;101965.75;5035524;28;20037;-71
2022/04/14 10:45:18;;;;;;;6.45;4.30;;;;;;;16.28;60.05;101962.06;5035604;28;20036;-71
2022/04/14 10:47:50;;;;;;;9.77;4.07;;;;;;;16.31;59.86;101961.59;5035537;28;20075;-71
2022/04/14 10:50:18;;;;;;;7.45;4.25;;;;;;;16.27;59.14;101955.78;5035640;28;20030;-71
2022/04/14 10:53:00;;;;;;;6.72;4.25;;;;;;;16.26;59.84;101950.53;5035241;28;20033;-71
2022/04/14 10:55:46;;;;;;;4.05;3.17;;;;;;;16.32;59.30;101949.59;5035330;28;20104;-71
2022/04/14 10:58:26;;;;;;;11.15;3.72;;;;;;;16.42;58.10;101954.47;5035438;28;20061;-71
2022/04/14 11:00:51;;;;;;;6.15;3.55;;;;;;;16.47;58.43;101949.09;5033113;28;20456;-71
2022/04/14 11:03:17;;;;;;;4.72;3.65;;;;;;;16.49;57.56;101941.53;5035225;28;20113;-71
2022/04/14 11:05:48;;;;;;;4.93;3.42;;;;;;;16.43;57.69;101943.28;5034837;28;20029;-71
2022/04/14 11:08:24;;;;;;;9.43;4.28;;;;;;;16.52;57.68;101945.69;5035203;28;20477;-71